Historyczne dane pomiarowe

Dodano dane terminowe – wersja testowa.

Dane z okresu 1951-2019

Wersja bazy: 1.34 [2019-03-16, lista zmian], aktualizacja planowana na 2019-04-15

Dane meteo z obszaru Polski uzyskane na podstawie danych udostępnionych przez Instytut Meteorologii i Gospodarki Wodnej – Państwowy Instytut Badawczy.

 

Wybierz Datę:    

       

TemperaturaWilgotnośćWiatrCiśnienieOpadyŚniegCzas trwania zjawisk
 Stacja t tx tn tng RH VA  wxwx mslp ppp RRR   cm mm wxwxwxwxwxwxwx
1983-08-14 11.9 15.7 10.0- 79.8- 6.0 2.3---- 0.0------------
1983-08-13 12.3 19.4 9.0- 95.0- 7.0 0.7---- 19.3------------
1983-08-12 16.2 20.6 14.8- 90.8- 5.3 1.3---- 2.0------------
1983-08-11 16.0 18.9 14.0- 92.8- 8.0 1.3---- 13.9------------
1983-08-10 15.0 21.3 9.6- 92.0- 6.7 1.0---- 2.7------------
1983-08-09 16.2 22.1 10.7- 87.0- 7.3 1.3---- 4.7------------
1983-08-08 15.8 21.6 10.6- 90.3- 7.3 1.3---- 0.0------------
1983-08-07 15.4 19.4 12.4- 89.5- 6.7 0.7---- 0.0------------
1983-08-06 11.7 17.7 4.8- 81.0- 6.0 0.3---- 0.2------------
1983-08-05 10.8 14.6 9.1- 89.0- 7.3 1.3---- 0.0------------
1983-08-04 12.0 19.3 10.4- 96.0- 8.0 1.7---- 9.8------------
1983-08-03 18.1 23.3 11.4- 84.5- 6.0 0.3---- 0.4------------
1983-08-02 17.2 27.6 6.2- 82.8- 1.3 0.3---- 0.0------------
1983-08-01 14.3 24.6 3.3- 80.3- 0.0 0.3---- 0.0------------
1983-07-31 14.3 19.7 10.5- 80.5- 4.0 0.7---- 0.0------------
1983-07-30 13.7 18.6 6.9- 89.8- 7.3 1.3---- 1.6------------
1983-07-29 15.7 21.4 8.1- 79.3- 2.0 1.0---- 0.0------------
1983-07-28 17.4 25.3 11.1- 86.0- 6.7 0.7---- 0.7------------
1983-07-27 19.9 25.3 13.6- 80.8- 1.7 1.3---- 0.0------------
1983-07-26 16.1 20.8 12.4- 82.0- 6.0 2.0---- 0.0------------
1983-07-25 12.9 16.8 11.1- 84.8- 7.3 0.7---- 0.8------------
1983-07-24 13.3 15.4 11.6- 90.3- 8.0 0.7---- 0.5------------
1983-07-23 13.0 16.4 10.5- 86.0- 7.3 1.3---- 10.4------------
1983-07-22 10.5 13.8 5.5- 83.8- 7.7 1.0---- 16.7------------
1983-07-21 9.8 13.8 7.1- 83.3- 4.3 2.0---- 0.3------------
1983-07-20 16.6 22.5 12.7- 85.0- 6.3 1.3---- 5.8------------
1983-07-19 18.4 28.0 7.7- 79.3- 1.7 0.7---- 0.0------------
1983-07-18 18.5 25.3 11.1- 78.0- 1.7 0.3---- 0.0------------
1983-07-17 15.8 24.0 8.8- 87.3- 2.7 0.7---- 0.0------------
1983-07-16 15.8 23.8 5.3- 81.3- 1.3 0.3---- 0.0------------
1983-07-15 16.7 21.4 15.0- 82.0- 4.7 1.0---- 0.0------------
1983-07-14 16.0 19.7 14.4- 88.5- 8.0 2.0---- 9.2------------
1983-07-13 15.2 19.6 12.0- 90.0- 7.3 0.7---- 2.8------------
1983-07-12 15.0 18.1 11.4- 93.0- 7.3 0.3---- 10.6------------
1983-07-11 14.4 19.8 11.0- 92.0- 6.7 0.7---- 7.2------------
1983-07-10 15.8 22.1 8.7- 87.8- 2.7 0.7---- 27.1------------
1983-07-09 15.7 22.8 5.6- 84.8- 1.3 0.7---- 0.0------------
1983-07-08 15.2 22.4 5.7- 74.0- 0.0 0.7---- 0.0------------
1983-07-07 16.5 24.6 6.5- 74.5- 1.3 0.7---- 0.0------------
1983-07-06 16.2 24.4 8.1- 79.0- 1.0 0.3---- 0.0------------
1983-07-05 15.7 23.6 6.5- 81.0- 2.3 0.3---- 0.0------------
1983-07-04 14.4 21.4 7.8- 85.3- 4.0 0.3---- 0.0------------
1983-07-03 15.6 18.6 13.7- 88.5- 5.3 0.7---- 0.8------------
1983-07-02 14.2 19.9 7.8- 91.8- 5.7 0.3---- 18.1------------
1983-07-01 15.1 24.0 8.0- 81.5- 4.0 1.0---- 1.6------------
1983-06-30 12.8 20.4 2.9- 82.3- 2.3 0.7---- 0.0------------
1983-06-29 11.8 14.6 10.7- 85.8- 5.7 0.7---- 0.0------------
1983-06-28 16.0 19.6 13.5- 92.3- 8.0 1.0---- 19.0------------
1983-06-27 16.9 23.8 8.0- 82.3- 3.7 1.0---- 5.3------------
1983-06-26 16.9 20.8 10.5- 74.8- 5.3 0.7---- 7.9------------
1983-06-25 17.2 22.4 8.6- 60.0- 0.0 2.7---- 0.0------------
1983-06-24 13.0 22.2 1.3- 68.5- 1.3 1.3---- 0.0------------
1983-06-23 11.1 18.1 0.8- 67.8- 0.0 0.3---- 0.0------------
1983-06-22 12.4 17.3 9.2- 68.5- 2.7 1.0---- 0.0------------
1983-06-21 17.3 21.4 12.2- 82.3- 5.7 0.3---- 0.0------------
1983-06-20 15.8 19.2 12.7- 90.5- 7.3 1.0---- 5.4------------
1983-06-19 14.1 18.0 10.1- 90.5- 8.0 1.7---- 4.3------------
1983-06-18 10.7 11.8 9.6- 97.0- 8.0 1.3---- 17.1------------
1983-06-17 9.3 10.3 8.2- 91.0- 8.0 1.7---- 12.9------------
1983-06-16 10.6 13.7 9.3- 94.3- 8.0 1.0---- 11.6------------
282.5 ms

 

Źródłem pochodzenia danych jest Instytut Meteorologii i Gospodarki Wodnej – Państwowy Instytut Badawczy. Dane Instytutu Meteorologii i Gospodarki Wodnej – Państwowego Instytutu Badawczego zostały przetworzone.

Dane źródłowe można odnaleźć na stronie https://dane.imgw.pl